
Distance (Route):
Temperature : 17.8°C
Humidity : 46.0%
Pressure : 0hPa| Receiver | Date | Latitude | Longitude | Direction | Speed | Altitude | Climb | Temperature | Humidity | Pressure | Voltage | Killtimer | Uptime | BKT | XDATA |
|---|---|---|---|---|---|---|---|---|---|---|---|---|---|---|---|
| LZ4TU-5 | 2026-09-04 06:56:29 | 43.53921 | 22.65568 | 162° | 26km/h | 1213m | -15.2m/s | 17.8°C | 46.0% | 0hPa | 0V | 00:00:00 | 00:00:00 | 00:00:00 | |
| LZ4TU-5 | 2026-09-04 06:56:24 | 43.53951 | 22.65553 | 155° | 26km/h | 1290m | -15.9m/s | 17.0°C | 47.6% | 0hPa | 0V | 00:00:00 | 00:00:00 | 00:00:00 | |
| LZ4TU-5 | 2026-09-04 06:56:20 | 43.53975 | 22.65538 | 153° | 26km/h | 1355m | -15.1m/s | 16.4°C | 48.8% | 0hPa | 0V | 00:00:00 | 00:00:00 | 00:00:00 | |
| LZ4TU-5 | 2026-09-04 06:56:15 | 43.54004 | 22.65515 | 149° | 27km/h | 1437m | -15.3m/s | 15.7°C | 50.4% | 0hPa | 0V | 00:00:00 | 00:00:00 | 00:00:00 | |
| LZ4TU-5 | 2026-09-04 06:56:10 | 43.54031 | 22.65490 | 145° | 24km/h | 1517m | -15.4m/s | 14.9°C | 52.0% | 0hPa | 0V | 00:00:00 | 00:00:00 | 00:00:00 | |
| LZ4TU-5 | 2026-09-04 06:56:05 | 43.54061 | 22.65469 | 157° | 27km/h | 1595m | -15.2m/s | 14.3°C | 53.4% | 0hPa | 0V | 00:00:00 | 00:00:00 | 00:00:00 | |
| LZ4TU-5 | 2026-09-04 06:56:01 | 43.54086 | 22.65452 | 152° | 29km/h | 1649m | -15.2m/s | 13.8°C | 54.7% | 0hPa | 0V | 00:00:00 | 00:00:00 | 00:00:00 | |
| LZ4TU-5 | 2026-09-04 06:55:57 | 43.54112 | 22.65433 | 155° | 35km/h | 1712m | -15.5m/s | 13.2°C | 56.4% | 0hPa | 0V | 00:00:00 | 00:00:00 | 00:00:00 | |
| LZ4TU-5 | 2026-09-04 06:55:53 | 43.54149 | 22.65410 | 157° | 38km/h | 1777m | -14.7m/s | 12.5°C | 58.2% | 0hPa | 0V | 00:00:00 | 00:00:00 | 00:00:00 | |
| LZ4TU-5 | 2026-09-04 06:55:48 | 43.54197 | 22.65382 | 161° | 44km/h | 1855m | -14.2m/s | 11.8°C | 60.0% | 0hPa | 0V | 00:00:00 | 00:00:00 | 00:00:00 | |
| LZ4TU-5 | 2026-09-04 06:55:43 | 43.54247 | 22.65353 | 164° | 42km/h | 1925m | -15.5m/s | 11.2°C | 61.5% | 0hPa | 0V | 00:00:00 | 00:00:00 | 00:00:00 | |
| LZ4TU-5 | 2026-09-04 06:55:38 | 43.54302 | 22.65335 | 168° | 46km/h | 1998m | -14.9m/s | 10.3°C | 63.3% | 0hPa | 0V | 00:00:00 | 00:00:00 | 00:00:00 | |
| LZ4TU-5 | 2026-09-04 06:55:34 | 43.54349 | 22.65318 | 167° | 49km/h | 2061m | -15.4m/s | 10.2°C | 64.9% | 0hPa | 0V | 00:00:00 | 00:00:00 | 00:00:00 | |
| LZ4TU-5 | 2026-09-04 06:55:29 | 43.54410 | 22.65295 | 164° | 49km/h | 2142m | -15.0m/s | 9.6°C | 70.8% | 0hPa | 0V | 00:00:00 | 00:00:00 | 00:00:00 | |
| LZ4TU-5 | 2026-09-04 06:55:24 | 43.54469 | 22.65271 | 161° | 49km/h | 2222m | -14.9m/s | 9.0°C | 75.4% | 0hPa | 0V | 00:00:00 | 00:00:00 | 00:00:00 | |
| LZ4TU-5 | 2026-09-04 06:55:19 | 43.54526 | 22.65242 | 162° | 49km/h | 2300m | -15.1m/s | 8.3°C | 75.3% | 0hPa | 0V | 00:00:00 | 00:00:00 | 00:00:00 | |
| LZ4TU-5 | 2026-09-04 06:55:15 | 43.54571 | 22.65219 | 162° | 47km/h | 2348m | -14.9m/s | 7.9°C | 74.2% | 0hPa | 0V | 00:00:00 | 00:00:00 | 00:00:00 | |
| LZ4TU-5 | 2026-09-04 06:55:11 | 43.54617 | 22.65198 | 161° | 49km/h | 2410m | -14.6m/s | 7.4°C | 72.8% | 0hPa | 0V | 00:00:00 | 00:00:00 | 00:00:00 | |
| LZ4TU-5 | 2026-09-04 06:55:06 | 43.54676 | 22.65169 | 161° | 51km/h | 2488m | -15.0m/s | 6.7°C | 73.9% | 0hPa | 0V | 00:00:00 | 00:00:00 | 00:00:00 | |
| LZ4TU-5 | 2026-09-04 06:55:02 | 43.54724 | 22.65146 | 161° | 51km/h | 2551m | -15.2m/s | 6.2°C | 72.7% | 0hPa | 0V | 00:00:00 | 00:00:00 | 00:00:00 | |
| LZ4TU-5 | 2026-09-04 06:54:57 | 43.54786 | 22.65118 | 162° | 51km/h | 2633m | -14.9m/s | 5.5°C | 73.3% | 0hPa | 0V | 00:00:00 | 00:00:00 | 00:00:00 | |
| LZ4TU-5 | 2026-09-04 06:54:52 | 43.54848 | 22.65091 | 165° | 51km/h | 2709m | -15.2m/s | 4.8°C | 73.7% | 0hPa | 0V | 00:00:00 | 00:00:00 | 00:00:00 | |
| LZ4TU-5 | 2026-09-04 06:54:48 | 43.54898 | 22.65070 | 167° | 51km/h | 2760m | -15.4m/s | 4.5°C | 69.0% | 0hPa | 0V | 00:00:00 | 00:00:00 | 00:00:00 | |
| LZ4TU-5 | 2026-09-04 06:54:43 | 43.54960 | 22.65051 | 169° | 49km/h | 2842m | -15.3m/s | 3.9°C | 67.8% | 0hPa | 0V | 00:00:00 | 00:00:00 | 00:00:00 | |
| LZ4TU-5 | 2026-09-04 06:54:38 | 43.55022 | 22.65033 | 170° | 49km/h | 2922m | -15.7m/s | 3.3°C | 65.4% | 0hPa | 0V | 00:00:00 | 00:00:00 | 00:00:00 | |
| LZ4TU-5 | 2026-09-04 06:54:33 | 43.55084 | 22.65022 | 175° | 46km/h | 3007m | -15.6m/s | 2.9°C | 60.2% | 0hPa | 0V | 00:00:00 | 00:00:00 | 00:00:00 | |
| LZ4TU-5 | 2026-09-04 06:54:28 | 43.55140 | 22.65015 | 175° | 44km/h | 3090m | -15.3m/s | 2.3°C | 63.7% | 0hPa | 0V | 00:00:00 | 00:00:00 | 00:00:00 | |
| LZ4TU-5 | 2026-09-04 06:54:23 | 43.55188 | 22.65006 | 176° | 40km/h | 3164m | -15.3m/s | 1.6°C | 68.0% | 0hPa | 0V | 00:00:00 | 00:00:00 | 00:00:00 | |
| LZ4TU-5 | 2026-09-04 06:54:19 | 43.55229 | 22.64999 | 173° | 38km/h | 3220m | -15.6m/s | 1.0°C | 69.9% | 0hPa | 0V | 00:00:00 | 00:00:00 | 00:00:00 | |
| LZ4TU-5 | 2026-09-04 06:54:14 | 43.55277 | 22.64989 | 170° | 38km/h | 3300m | -15.1m/s | 0.4°C | 71.2% | 0hPa | 0V | 00:00:00 | 00:00:00 | 00:00:00 | |
| LZ4TU-5 | 2026-09-04 06:54:09 | 43.55325 | 22.64976 | 169° | 37km/h | 3381m | -15.1m/s | -0.1°C | 68.9% | 0hPa | 0V | 00:00:00 | 00:00:00 | 00:00:00 | |
| LZ4TU-5 | 2026-09-04 06:54:05 | 43.55362 | 22.64964 | 164° | 35km/h | 3445m | -15.3m/s | -0.0°C | 61.8% | 0hPa | 0V | 00:00:00 | 00:00:00 | 00:00:00 | |
| LZ4TU-5 | 2026-09-04 06:54:01 | 43.55397 | 22.64950 | 161° | 37km/h | 3509m | -15.6m/s | -0.3°C | 61.8% | 0hPa | 0V | 00:00:00 | 00:00:00 | 00:00:00 | |
| LZ4TU-5 | 2026-09-04 06:53:56 | 43.55437 | 22.64926 | 160° | 38km/h | 3576m | -15.3m/s | -0.7°C | 60.0% | 0hPa | 0V | 00:00:00 | 00:00:00 | 00:00:00 | |
| LZ4TU-5 | 2026-09-04 06:53:52 | 43.55473 | 22.64906 | 159° | 37km/h | 3640m | -15.8m/s | -1.2°C | 59.7% | 0hPa | 0V | 00:00:00 | 00:00:00 | 00:00:00 | |
| LZ4TU-5 | 2026-09-04 06:53:47 | 43.55516 | 22.64884 | 160° | 35km/h | 3724m | -15.7m/s | -1.6°C | 61.3% | 0hPa | 0V | 00:00:00 | 00:00:00 | 00:00:00 | |
| LZ4TU-5 | 2026-09-04 06:53:42 | 43.55558 | 22.64864 | 165° | 37km/h | 3805m | -15.8m/s | -2.0°C | 60.1% | 0hPa | 0V | 00:00:00 | 00:00:00 | 00:00:00 | |
| LZ4TU-5 | 2026-09-04 06:53:37 | 43.55601 | 22.64845 | 164° | 37km/h | 3887m | -15.6m/s | -2.6°C | 60.3% | 0hPa | 0V | 00:00:00 | 00:00:00 | 00:00:00 | |
| LZ4TU-5 | 2026-09-04 06:53:32 | 43.55645 | 22.64827 | 164° | 37km/h | 3957m | -16.0m/s | -3.2°C | 58.6% | 0hPa | 0V | 00:00:00 | 00:00:00 | 00:00:00 | |
| LZ4TU-5 | 2026-09-04 06:53:27 | 43.55690 | 22.64810 | 166° | 38km/h | 4040m | -15.7m/s | -3.9°C | 60.4% | 0hPa | 0V | 00:00:00 | 00:00:00 | 00:00:00 | |
| LZ4TU-5 | 2026-09-04 06:53:22 | 43.55737 | 22.64794 | 167° | 44km/h | 4123m | -15.7m/s | -4.6°C | 57.2% | 0hPa | 0V | 00:00:00 | 00:00:00 | 00:00:00 | |
| LZ4TU-5 | 2026-09-04 06:53:18 | 43.55782 | 22.64782 | 171° | 47km/h | 4189m | -16.2m/s | -4.3°C | 37.9% | 0hPa | 0V | 00:00:00 | 00:00:00 | 00:00:00 | |
| LZ4TU-5 | 2026-09-04 06:53:14 | 43.55827 | 22.64771 | 173° | 47km/h | 4254m | -16.0m/s | -3.4°C | 18.4% | 0hPa | 0V | 00:00:00 | 00:00:00 | 00:00:00 | |
| LZ4TU-5 | 2026-09-04 06:53:09 | 43.55886 | 22.64756 | 171° | 46km/h | 4323m | -15.9m/s | -3.4°C | 16.1% | 0hPa | 0V | 00:00:00 | 00:00:00 | 00:00:00 | |
| LZ4TU-5 | 2026-09-04 06:53:04 | 43.55943 | 22.64741 | 168° | 46km/h | 4405m | -15.8m/s | -3.8°C | 15.7% | 0hPa | 0V | 00:00:00 | 00:00:00 | 00:00:00 | |
| LZ4TU-5 | 2026-09-04 06:52:59 | 43.55997 | 22.64724 | 167° | 44km/h | 4486m | -15.9m/s | -3.9°C | 17.4% | 0hPa | 0V | 00:00:00 | 00:00:00 | 00:00:00 | |
| LZ4TU-5 | 2026-09-04 06:51:22 | 43.57261 | 22.64727 | 175° | 60km/h | 6064m | -17.0m/s | -15.0°C | 28.9% | 0hPa | 0V | 00:00:00 | 00:00:00 | 00:00:00 | |
| LZ4TU-5 | 2026-09-04 06:51:17 | 43.57339 | 22.64714 | 174° | 62km/h | 6152m | -17.2m/s | -15.7°C | 29.1% | 0hPa | 0V | 00:00:00 | 00:00:00 | 00:00:00 | |
| LZ4TU-5 | 2026-09-04 06:49:57 | 43.59021 | 22.64594 | 180° | 104km/h | 7538m | -18.3m/s | -23.4°C | 39.8% | 0hPa | 0V | 00:00:00 | 00:00:00 | 00:00:00 | |
| LZ4TU-5 | 2026-09-04 06:49:53 | 43.59127 | 22.64593 | 181° | 110km/h | 7611m | -17.7m/s | -24.1°C | 45.2% | 0hPa | 0V | 00:00:00 | 00:00:00 | 00:00:00 | |
| LZ4TU-5 | 2026-09-04 06:49:49 | 43.59239 | 22.64590 | 180° | 113km/h | 7682m | -18.3m/s | -24.7°C | 50.2% | 0hPa | 0V | 00:00:00 | 00:00:00 | 00:00:00 | |
| LZ4TU-5 | 2026-09-04 06:49:45 | 43.59355 | 22.64588 | 180° | 117km/h | 7752m | -18.5m/s | -24.9°C | 51.7% | 0hPa | 0V | 00:00:00 | 00:00:00 | 00:00:00 | |
| LZ4TU-5 | 2026-09-04 06:49:40 | 43.59501 | 22.64586 | 180° | 117km/h | 7849m | -18.7m/s | -25.6°C | 49.7% | 0hPa | 0V | 00:00:00 | 00:00:00 | 00:00:00 | |
| LZ4TU-5 | 2026-09-04 06:48:18 | 43.62136 | 22.64804 | 189° | 150km/h | 9455m | -20.3m/s | -37.8°C | 55.8% | 0hPa | 0V | 00:00:00 | 00:00:00 | 00:00:00 | |
| LZ4TU-5 | 2026-09-04 06:48:13 | 43.62326 | 22.64841 | 189° | 151km/h | 9561m | -20.7m/s | -38.8°C | 0% | 0hPa | 0V | 00:00:00 | 00:00:00 | 00:00:00 | |
| LZ4TU-5 | 2026-09-04 06:46:24 | 43.66596 | 22.65947 | 183° | 141km/h | 11928m | -23.2m/s | -58.1°C | 16.3% | 0hPa | 0V | 00:00:00 | 00:00:00 | 00:00:00 | |
| LZ4TU-5 | 2026-09-04 06:46:19 | 43.66773 | 22.65951 | 180° | 139km/h | 12041m | -23.5m/s | -58.1°C | 0% | 0hPa | 0V | 00:00:00 | 00:00:00 | 00:00:00 | |
| LZ4TU-5 | 2026-09-04 06:44:52 | 43.68500 | 22.65325 | 128° | 29km/h | 14210m | -27.3m/s | -53.5°C | 0.1% | 0hPa | 0V | 00:00:00 | 00:00:00 | 00:00:00 | |
| LZ4TU-5 | 2026-09-04 06:44:47 | 43.68524 | 22.65279 | 128° | 37km/h | 14346m | -27.4m/s | -53.5°C | 0.0% | 0hPa | 0V | 00:00:00 | 00:00:00 | 00:00:00 | |
| LZ4TU-5 | 2026-09-04 06:43:29 | 43.68997 | 22.64530 | 142° | 24km/h | 16596m | -33.3m/s | -56.1°C | 0.0% | 0hPa | 0V | 00:00:00 | 00:00:00 | 00:00:00 | |
| LZ4TU-5 | 2026-09-04 06:43:24 | 43.69015 | 22.64508 | 121° | 15km/h | 16764m | -32.7m/s | -56.1°C | 0.0% | 0hPa | 0V | 00:00:00 | 00:00:00 | 00:00:00 | |
| LZ4TU-5 | 2026-09-04 06:42:05 | 43.69083 | 22.64008 | 119° | 11km/h | 19510m | -36.3m/s | -55.5°C | 0.0% | 0hPa | 0V | 00:00:00 | 00:00:00 | 00:00:00 | |
| LZ4TU-5 | 2026-09-04 06:42:01 | 43.69087 | 22.63990 | 81° | 13km/h | 19657m | -36.3m/s | -55.6°C | 0% | 0hPa | 0V | 00:00:00 | 00:00:00 | 00:00:00 | |
| LZ4TU-5 | 2026-09-04 06:40:36 | 43.69188 | 22.63890 | 141° | 11km/h | 23284m | -49.8m/s | -51.1°C | 0.0% | 0hPa | 0V | 00:00:00 | 00:00:00 | 00:00:00 | |
| LZ4TU-5 | 2026-09-04 06:40:31 | 43.69197 | 22.63885 | 205° | 5km/h | 23534m | -48.4m/s | -51.1°C | 0.0% | 0hPa | 0V | 00:00:00 | 00:00:00 | 00:00:00 | |
| LZ4TU-5 | 2026-09-04 06:39:15 | 43.69203 | 22.63897 | 241° | 11km/h | 27661m | -63.3m/s | -46.1°C | 0.2% | 0hPa | 0V | 00:00:00 | 00:00:00 | 00:00:00 | |
| LZ4TU-5 | 2026-09-04 06:39:10 | 43.69210 | 22.63915 | 255° | 15km/h | 27979m | -64.7m/s | -45.7°C | 0.3% | 0hPa | 0V | 00:00:00 | 00:00:00 | 00:00:00 | |
| OM5KV | 2026-09-04 06:37:56 | 43.68952 | 22.64168 | 5° | 31km/h | 29960m | 7.7m/s | -43.8°C | 1.4% | 0hPa | 0V | 00:00:00 | 00:00:00 | 00:00:00 | |
| LZ4TU-5 | 2026-09-04 06:37:42 | 43.68870 | 22.64191 | 317° | 40km/h | 29859m | 7.2m/s | -43.7°C | 1.4% | 0hPa | 0V | 00:00:00 | 00:00:00 | 00:00:00 | |
| LZ4TU-5 | 2026-09-04 06:37:37 | 43.68851 | 22.64212 | 25° | 31km/h | 29822m | 8.4m/s | -43.5°C | 0% | 0hPa | 0V | 00:00:00 | 00:00:00 | 00:00:00 | |
| LZ4TU-5 | 2026-09-04 06:36:17 | 43.68496 | 22.64490 | 326° | 7km/h | 29265m | 5.6m/s | -44.2°C | 1.1% | 0hPa | 0V | 00:00:00 | 00:00:00 | 00:00:00 | |
| OM5KV | 2026-09-04 06:36:14 | 43.68488 | 22.64502 | 301° | 31km/h | 29243m | 7.1m/s | -44.5°C | 1.1% | 0hPa | 0V | 00:00:00 | 00:00:00 | 00:00:00 | |
| LZ4TU-5 | 2026-09-04 06:36:12 | 43.68481 | 22.64522 | 298° | 29km/h | 29229m | 4.9m/s | -44.5°C | 1.2% | 0hPa | 0V | 00:00:00 | 00:00:00 | 00:00:00 | |
| OM5KV | 2026-09-04 06:35:02 | 43.68430 | 22.64804 | 280° | 18km/h | 28765m | 7.4m/s | -45.8°C | 1.1% | 0hPa | 0V | 00:00:00 | 00:00:00 | 00:00:00 | |
| LZ4TU-5 | 2026-09-04 06:34:50 | 43.68428 | 22.64820 | 95° | 5km/h | 28685m | 7.7m/s | -46.3°C | 1.1% | 0hPa | 0V | 00:00:00 | 00:00:00 | 00:00:00 | |
| LZ4TU-5 | 2026-09-04 06:33:32 | 43.68426 | 22.65144 | 255° | 31km/h | 28124m | 8.5m/s | -46.6°C | 1.1% | 0hPa | 0V | 00:00:00 | 00:00:00 | 00:00:00 | |
| LZ4TU-5 | 2026-09-04 06:33:27 | 43.68460 | 22.65166 | 194° | 33km/h | 28088m | 6.7m/s | -46.7°C | 0% | 0hPa | 0V | 00:00:00 | 00:00:00 | 00:00:00 | |
| LZ4TU-5 | 2026-09-04 06:32:07 | 43.68739 | 22.65403 | 219° | 27km/h | 27498m | 7.0m/s | -46.1°C | 0.8% | 0hPa | 0V | 00:00:00 | 00:00:00 | 00:00:00 | |
| LZ4TU-5 | 2026-09-04 06:32:02 | 43.68748 | 22.65423 | 133° | 11km/h | 27460m | 6.5m/s | -46.3°C | 0.9% | 0hPa | 0V | 00:00:00 | 00:00:00 | 00:00:00 | |
| LZ4TU-5 | 2026-09-04 06:30:37 | 43.69001 | 22.65483 | 215° | 16km/h | 26891m | 5.9m/s | -47.2°C | 1.0% | 0hPa | 0V | 00:00:00 | 00:00:00 | 00:00:00 | |
| LZ4TU-5 | 2026-09-04 06:30:33 | 43.69017 | 22.65496 | 186° | 18km/h | 26868m | 6.4m/s | -47.3°C | 1.0% | 0hPa | 0V | 00:00:00 | 00:00:00 | 00:00:00 | |
| LZ4TU-5 | 2026-09-04 06:29:15 | 43.69044 | 22.65193 | 40° | 13km/h | 26328m | 8.9m/s | -47.2°C | 0.9% | 0hPa | 0V | 00:00:00 | 00:00:00 | 00:00:00 | |
| LZ4TU-5 | 2026-09-04 06:29:11 | 43.69043 | 22.65170 | 86° | 11km/h | 26298m | 8.2m/s | -47.3°C | 0% | 0hPa | 0V | 00:00:00 | 00:00:00 | 00:00:00 | |
| LZ4TU-5 | 2026-09-04 06:27:52 | 43.68753 | 22.65098 | 355° | 15km/h | 25750m | 7.4m/s | -47.6°C | 0.5% | 0hPa | 0V | 00:00:00 | 00:00:00 | 00:00:00 | |
| LZ4TU-5 | 2026-09-04 06:27:47 | 43.68735 | 22.65101 | 303° | 22km/h | 25716m | 6.4m/s | -48.0°C | 0.6% | 0hPa | 0V | 00:00:00 | 00:00:00 | 00:00:00 | |
| LZ4TU-5 | 2026-09-04 06:26:20 | 43.68460 | 22.65242 | 320° | 18km/h | 25134m | 7.3m/s | -49.5°C | 0.6% | 0hPa | 0V | 00:00:00 | 00:00:00 | 00:00:00 | |
| LZ4TU-5 | 2026-09-04 06:24:56 | 43.68539 | 22.65479 | 154° | 13km/h | 24566m | 8.1m/s | -51.3°C | 0.4% | 0hPa | 0V | 00:00:00 | 00:00:00 | 00:00:00 | |
| LZ4TU-5 | 2026-09-04 06:24:52 | 43.68536 | 22.65478 | 278° | 5km/h | 24537m | 7.3m/s | -51.3°C | 0.4% | 0hPa | 0V | 00:00:00 | 00:00:00 | 00:00:00 | |
| LZ4TU-5 | 2026-09-04 06:24:47 | 43.68561 | 22.65491 | 194° | 16km/h | 24502m | 6.8m/s | -51.4°C | 0% | 0hPa | 0V | 00:00:00 | 00:00:00 | 00:00:00 | |
| LZ4TU-5 | 2026-09-04 06:24:42 | 43.68566 | 22.65490 | 36° | 9km/h | 24468m | 8.1m/s | -51.4°C | 0.3% | 0hPa | 0V | 00:00:00 | 00:00:00 | 00:00:00 | |
| LZ4TU-5 | 2026-09-04 06:23:10 | 43.68646 | 22.65456 | 206° | 5km/h | 23844m | 6.3m/s | -51.8°C | 0.7% | 0hPa | 0V | 00:00:00 | 00:00:00 | 00:00:00 | |
| LZ4TU-5 | 2026-09-04 06:23:05 | 43.68647 | 22.65447 | 138° | 22km/h | 23813m | 5.8m/s | -52.0°C | 0.7% | 0hPa | 0V | 00:00:00 | 00:00:00 | 00:00:00 | |
| LZ4TU-5 | 2026-09-04 06:21:40 | 43.68782 | 22.65293 | 91° | 9km/h | 23271m | 6.5m/s | -52.4°C | 0.5% | 0hPa | 0V | 00:00:00 | 00:00:00 | 00:00:00 | |
| LZ4TU-5 | 2026-09-04 06:21:35 | 43.68781 | 22.65267 | 77° | 22km/h | 23240m | 6.4m/s | -52.5°C | 0.5% | 0hPa | 0V | 00:00:00 | 00:00:00 | 00:00:00 | |
| LZ4TU-5 | 2026-09-04 06:20:10 | 43.68797 | 22.65314 | 219° | 15km/h | 22707m | 6.9m/s | -53.4°C | 0.4% | 0hPa | 0V | 00:00:00 | 00:00:00 | 00:00:00 | |
| LZ4TU-5 | 2026-09-04 06:20:05 | 43.68818 | 22.65303 | 140° | 29km/h | 22677m | 6.4m/s | -53.5°C | 0.4% | 0hPa | 0V | 00:00:00 | 00:00:00 | 00:00:00 | |
| LZ4TU-5 | 2026-09-04 06:18:39 | 43.68799 | 22.65048 | 277° | 18km/h | 22148m | 7.5m/s | -55.6°C | 0.5% | 0hPa | 0V | 00:00:00 | 00:00:00 | 00:00:00 | |
| LZ4TU-5 | 2026-09-04 06:18:34 | 43.68792 | 22.65079 | 319° | 16km/h | 22113m | 7.4m/s | -55.7°C | 0% | 0hPa | 0V | 00:00:00 | 00:00:00 | 00:00:00 | |
| LZ4TU-5 | 2026-09-04 06:17:09 | 43.68882 | 22.65286 | 72° | 18km/h | 21573m | 7.5m/s | -54.5°C | 0.4% | 0hPa | 0V | 00:00:00 | 00:00:00 | 00:00:00 | |
| LZ4TU-5 | 2026-09-04 06:17:04 | 43.68882 | 22.65260 | 28° | 13km/h | 21544m | 5.7m/s | -54.7°C | 0.5% | 0hPa | 0V | 00:00:00 | 00:00:00 | 00:00:00 | |
| LZ4TU-5 | 2026-09-04 06:15:33 | 43.68916 | 22.65491 | 217° | 27km/h | 21002m | 4.6m/s | -54.4°C | 0.5% | 0hPa | 0V | 00:00:00 | 00:00:00 | 00:00:00 | |
| LZ4TU-5 | 2026-09-04 06:15:28 | 43.68930 | 22.65520 | 246° | 16km/h | 20973m | 5.8m/s | -54.2°C | 0.5% | 0hPa | 0V | 00:00:00 | 00:00:00 | 00:00:00 | |
| LZ4TU-5 | 2026-09-04 06:14:03 | 43.69249 | 22.65466 | 52° | 9km/h | 20459m | 7.4m/s | -54.2°C | 0.6% | 0hPa | 0V | 00:00:00 | 00:00:00 | 00:00:00 | |
| LZ4TU-5 | 2026-09-04 06:13:58 | 43.69253 | 22.65464 | 175° | 11km/h | 20426m | 7.8m/s | -54.1°C | 0.6% | 0hPa | 0V | 00:00:00 | 00:00:00 | 00:00:00 | |
| LZ4TU-5 | 2026-09-04 06:12:07 | 43.69498 | 22.64864 | 68° | 20km/h | 19781m | 5.0m/s | -55.3°C | 0.5% | 0hPa | 0V | 00:00:00 | 00:00:00 | 00:00:00 | |
| LZ4TU-5 | 2026-09-04 06:12:02 | 43.69486 | 22.64835 | 61° | 22km/h | 19754m | 5.2m/s | -55.4°C | 0.5% | 0hPa | 0V | 00:00:00 | 00:00:00 | 00:00:00 | |
| LZ4TU-5 | 2026-09-04 06:10:33 | 43.69554 | 22.64600 | 139° | 20km/h | 19248m | 6.6m/s | -55.8°C | 0.3% | 0hPa | 0V | 00:00:00 | 00:00:00 | 00:00:00 | |
| LZ4TU-5 | 2026-09-04 06:10:29 | 43.69567 | 22.64575 | 128° | 24km/h | 19226m | 5.3m/s | -56.1°C | 0.4% | 0hPa | 0V | 00:00:00 | 00:00:00 | 00:00:00 | |
| LZ4TU-5 | 2026-09-04 06:08:53 | 43.69590 | 22.64023 | 53° | 4km/h | 18640m | 7.4m/s | -54.0°C | 0.7% | 0hPa | 0V | 00:00:00 | 00:00:00 | 00:00:00 | |
| LZ4TU-5 | 2026-09-04 06:08:48 | 43.69589 | 22.64017 | 112° | 4km/h | 18607m | 7.6m/s | -53.8°C | 0.6% | 0hPa | 0V | 00:00:00 | 00:00:00 | 00:00:00 | |
| LZ4TU-5 | 2026-09-04 06:07:03 | 43.69946 | 22.63466 | 107° | 29km/h | 18023m | 4.0m/s | -56.2°C | 0.7% | 0hPa | 0V | 00:00:00 | 00:00:00 | 00:00:00 | |
| LZ4TU-5 | 2026-09-04 06:05:10 | 43.70069 | 22.62308 | 101° | 20km/h | 17396m | 4.8m/s | -57.9°C | 0.6% | 0hPa | 0V | 00:00:00 | 00:00:00 | 00:00:00 | |
| LZ4TU-5 | 2026-09-04 06:05:05 | 43.70085 | 22.62267 | 115° | 26km/h | 17368m | 4.3m/s | -57.9°C | 0.6% | 0hPa | 0V | 00:00:00 | 00:00:00 | 00:00:00 | |
| LZ4TU-5 | 2026-09-04 06:05:00 | 43.70093 | 22.62233 | 100° | 18km/h | 17338m | 5.1m/s | -58.1°C | 0.6% | 0hPa | 0V | 00:00:00 | 00:00:00 | 00:00:00 | |
| LZ4TU-5 | 2026-09-04 06:03:11 | 43.70141 | 22.61485 | 137° | 15km/h | 16677m | 5.4m/s | -55.3°C | 1.1% | 0hPa | 0V | 00:00:00 | 00:00:00 | 00:00:00 | |
| LZ4TU-5 | 2026-09-04 06:03:06 | 43.70156 | 22.61470 | 162° | 22km/h | 16651m | 4.2m/s | -55.4°C | 1.1% | 0hPa | 0V | 00:00:00 | 00:00:00 | 00:00:00 | |
| LZ4TU-5 | 2026-09-04 06:01:41 | 43.70656 | 22.60916 | 152° | 42km/h | 16195m | 7.0m/s | -55.5°C | 1.4% | 0hPa | 0V | 00:00:00 | 00:00:00 | 00:00:00 | |
| LZ4TU-5 | 2026-09-04 06:01:36 | 43.70685 | 22.60873 | 134° | 40km/h | 16158m | 6.4m/s | -55.6°C | 0% | 0hPa | 0V | 00:00:00 | 00:00:00 | 00:00:00 | |
| LZ4TU-5 | 2026-09-04 05:59:57 | 43.71289 | 22.59727 | 129° | 38km/h | 15578m | 4.3m/s | -55.8°C | 2.3% | 0hPa | 0V | 00:00:00 | 00:00:00 | 00:00:00 | |
| LZ4TU-5 | 2026-09-04 05:59:53 | 43.71303 | 22.59688 | 101° | 27km/h | 15555m | 5.3m/s | -55.9°C | 2.4% | 0hPa | 0V | 00:00:00 | 00:00:00 | 00:00:00 | |
| LZ4TU-5 | 2026-09-04 05:58:16 | 43.71884 | 22.58633 | 156° | 60km/h | 15006m | 5.6m/s | -54.7°C | 2.4% | 0hPa | 0V | 00:00:00 | 00:00:00 | 00:00:00 | |
| LZ4TU-5 | 2026-09-04 05:58:11 | 43.71947 | 22.58575 | 138° | 60km/h | 14981m | 4.5m/s | -54.6°C | 2.3% | 0hPa | 0V | 00:00:00 | 00:00:00 | 00:00:00 | |
| LZ4TU-5 | 2026-09-04 05:56:42 | 43.72663 | 22.57459 | 132° | 47km/h | 14549m | 5.7m/s | -54.8°C | 2.1% | 0hPa | 0V | 00:00:00 | 00:00:00 | 00:00:00 | |
| LZ4TU-5 | 2026-09-04 05:56:37 | 43.72709 | 22.57401 | 141° | 49km/h | 14522m | 5.7m/s | -54.7°C | 2.1% | 0hPa | 0V | 00:00:00 | 00:00:00 | 00:00:00 | |
| LZ4TU-5 | 2026-09-04 05:55:09 | 43.73181 | 22.56641 | 215° | 26km/h | 13983m | 3.8m/s | -53.1°C | 2.4% | 0hPa | 0V | 00:00:00 | 00:00:00 | 00:00:00 | |
| LZ4TU-5 | 2026-09-04 05:55:05 | 43.73208 | 22.56626 | 131° | 35km/h | 13943m | 9.4m/s | -52.8°C | 2.4% | 0hPa | 0V | 00:00:00 | 00:00:00 | 00:00:00 | |
| LZ4TU-5 | 2026-09-04 05:53:31 | 43.74176 | 22.56092 | 157° | 75km/h | 13329m | 4.8m/s | -53.0°C | 4.8% | 0hPa | 0V | 00:00:00 | 00:00:00 | 00:00:00 | |
| LZ4TU-5 | 2026-09-04 05:53:26 | 43.74258 | 22.56027 | 154° | 82km/h | 13303m | 5.4m/s | -53.1°C | 5.0% | 0hPa | 0V | 00:00:00 | 00:00:00 | 00:00:00 | |
| LZ4TU-5 | 2026-09-04 05:52:06 | 43.75788 | 22.55025 | 164° | 77km/h | 12826m | 6.6m/s | -55.0°C | 9.3% | 0hPa | 0V | 00:00:00 | 00:00:00 | 00:00:00 | |
| LZ4TU-5 | 2026-09-04 05:52:01 | 43.75909 | 22.54973 | 160° | 91km/h | 12796m | 5.5m/s | -54.8°C | 9.7% | 0hPa | 0V | 00:00:00 | 00:00:00 | 00:00:00 | |
| LZ4TU-5 | 2026-09-04 05:50:38 | 43.77952 | 22.54522 | 167° | 113km/h | 12289m | 5.4m/s | -54.9°C | 25.9% | 0hPa | 0V | 00:00:00 | 00:00:00 | 00:00:00 | |
| LZ4TU-5 | 2026-09-04 05:50:34 | 43.78072 | 22.54478 | 171° | 128km/h | 12265m | 5.2m/s | -55.0°C | 27.0% | 0hPa | 0V | 00:00:00 | 00:00:00 | 00:00:00 | |
| LZ4TU-5 | 2026-09-04 05:49:15 | 43.80583 | 22.54269 | 168° | 104km/h | 11830m | 6.8m/s | -56.0°C | 44.1% | 0hPa | 0V | 00:00:00 | 00:00:00 | 00:00:00 | |
| LZ4TU-5 | 2026-09-04 05:47:37 | 43.84371 | 22.55458 | 199° | 168km/h | 11251m | 5.8m/s | -54.6°C | 56.1% | 0hPa | 0V | 00:00:00 | 00:00:00 | 00:00:00 | |
| LZ4TU-5 | 2026-09-04 05:47:32 | 43.84582 | 22.55530 | 194° | 168km/h | 11225m | 6.5m/s | -54.3°C | 57.7% | 0hPa | 0V | 00:00:00 | 00:00:00 | 00:00:00 | |
| LZ4TU-5 | 2026-09-04 05:46:04 | 43.88375 | 22.56938 | 190° | 162km/h | 10727m | 5.6m/s | -50.2°C | 67.6% | 0hPa | 0V | 00:00:00 | 00:00:00 | 00:00:00 | |
| LZ4TU-5 | 2026-09-04 05:45:59 | 43.88577 | 22.56996 | 197° | 172km/h | 10702m | 4.8m/s | -50.0°C | 66.9% | 0hPa | 0V | 00:00:00 | 00:00:00 | 00:00:00 | |
| LZ4TU-5 | 2026-09-04 05:44:39 | 43.91972 | 22.57932 | 192° | 159km/h | 10229m | 7.7m/s | -45.7°C | 57.5% | 0hPa | 0V | 00:00:00 | 00:00:00 | 00:00:00 | |
| LZ4TU-5 | 2026-09-04 05:44:34 | 43.92176 | 22.57978 | 194° | 164km/h | 10195m | 6.9m/s | -45.4°C | 0% | 0hPa | 0V | 00:00:00 | 00:00:00 | 00:00:00 | |
| LZ4TU-5 | 2026-09-04 05:43:05 | 43.95640 | 22.58880 | 189° | 150km/h | 9663m | 4.5m/s | -40.8°C | 40.2% | 0hPa | 0V | 00:00:00 | 00:00:00 | 00:00:00 | |
| LZ4TU-5 | 2026-09-04 05:43:00 | 43.95827 | 22.58945 | 196° | 155km/h | 9635m | 4.8m/s | -40.7°C | 39.9% | 0hPa | 0V | 00:00:00 | 00:00:00 | 00:00:00 | |
| LZ4TU-5 | 2026-09-04 05:41:33 | 43.98989 | 22.59606 | 182° | 117km/h | 9128m | 4.9m/s | -36.6°C | 38.1% | 0hPa | 0V | 00:00:00 | 00:00:00 | 00:00:00 | |
| LZ4TU-5 | 2026-09-04 05:41:28 | 43.99162 | 22.59643 | 185° | 151km/h | 9097m | 7.0m/s | -36.4°C | 38.5% | 0hPa | 0V | 00:00:00 | 00:00:00 | 00:00:00 | |
| LZ4TU-5 | 2026-09-04 05:39:40 | 44.02739 | 22.59771 | 176° | 110km/h | 8465m | 5.4m/s | -32.0°C | 42.3% | 0hPa | 0V | 00:00:00 | 00:00:00 | 00:00:00 | |
| LZ4TU-5 | 2026-09-04 05:39:35 | 44.02891 | 22.59773 | 185° | 124km/h | 8439m | 3.4m/s | -31.7°C | 42.0% | 0hPa | 0V | 00:00:00 | 00:00:00 | 00:00:00 | |
| LZ4TU-5 | 2026-09-04 05:37:41 | 44.06295 | 22.59749 | 179° | 126km/h | 7766m | 6.6m/s | -26.1°C | 41.9% | 0hPa | 0V | 00:00:00 | 00:00:00 | 00:00:00 | |
| LZ4TU-5 | 2026-09-04 05:37:37 | 44.06433 | 22.59750 | 179° | 141km/h | 7744m | 6.3m/s | -26.0°C | 41.2% | 0hPa | 0V | 00:00:00 | 00:00:00 | 00:00:00 | |
| LZ4TU-5 | 2026-09-04 05:36:23 | 44.08439 | 22.59739 | 169° | 88km/h | 7322m | 6.4m/s | -23.4°C | 7.1% | 0hPa | 0V | 00:00:00 | 00:00:00 | 00:00:00 | |
| LZ4TU-5 | 2026-09-04 05:36:18 | 44.08563 | 22.59728 | 183° | 91km/h | 7293m | 5.0m/s | -23.3°C | 0% | 0hPa | 0V | 00:00:00 | 00:00:00 | 00:00:00 | |
| LZ4TU-5 | 2026-09-04 05:35:06 | 44.10072 | 22.59401 | 164° | 71km/h | 6885m | 8.3m/s | -21.3°C | 7.6% | 0hPa | 0V | 00:00:00 | 00:00:00 | 00:00:00 | |
| LZ4TU-5 | 2026-09-04 05:35:01 | 44.10165 | 22.59358 | 171° | 86km/h | 6861m | 6.2m/s | -21.1°C | 7.6% | 0hPa | 0V | 00:00:00 | 00:00:00 | 00:00:00 | |
| LZ4TU-5 | 2026-09-04 05:33:48 | 44.11641 | 22.59059 | 177° | 66km/h | 6439m | 6.8m/s | -18.9°C | 0% | 0hPa | 0V | 00:00:00 | 00:00:00 | 00:00:00 | |
| LZ4TU-5 | 2026-09-04 05:33:43 | 44.11732 | 22.59014 | 165° | 95km/h | 6412m | 4.4m/s | -18.7°C | 19.3% | 0hPa | 0V | 00:00:00 | 00:00:00 | 00:00:00 | |
| LZ4TU-5 | 2026-09-04 05:32:35 | 44.12850 | 22.58617 | 180° | 46km/h | 5998m | 8.4m/s | -15.8°C | 27.1% | 0hPa | 0V | 00:00:00 | 00:00:00 | 00:00:00 | |
| LZ4TU-5 | 2026-09-04 05:32:30 | 44.12929 | 22.58575 | 152° | 78km/h | 5977m | 6.1m/s | -15.5°C | 26.8% | 0hPa | 0V | 00:00:00 | 00:00:00 | 00:00:00 | |
| LZ4TU-5 | 2026-09-04 05:31:22 | 44.13951 | 22.58322 | 179° | 42km/h | 5581m | 6.4m/s | -13.0°C | 24.1% | 0hPa | 0V | 00:00:00 | 00:00:00 | 00:00:00 | |
| LZ4TU-5 | 2026-09-04 05:31:17 | 44.14022 | 22.58341 | 176° | 69km/h | 5554m | 6.6m/s | -13.0°C | 25.6% | 0hPa | 0V | 00:00:00 | 00:00:00 | 00:00:00 | |
| LZ4TU-5 | 2026-09-04 05:30:09 | 44.14981 | 22.58204 | 187° | 62km/h | 5185m | 6.0m/s | -10.5°C | 36.8% | 0hPa | 0V | 00:00:00 | 00:00:00 | 00:00:00 | |
| LZ4TU-5 | 2026-09-04 05:30:05 | 44.15043 | 22.58203 | 175° | 49km/h | 5161m | 6.3m/s | -10.5°C | 40.2% | 0hPa | 0V | 00:00:00 | 00:00:00 | 00:00:00 | |
| LZ4TU-5 | 2026-09-04 05:28:42 | 44.16027 | 22.57741 | 155° | 35km/h | 4656m | 8.2m/s | -6.7°C | 22.1% | 0hPa | 0V | 00:00:00 | 00:00:00 | 00:00:00 | |
| LZ4TU-5 | 2026-09-04 05:27:35 | 44.16756 | 22.57246 | 153° | 31km/h | 4289m | 6.2m/s | -5.0°C | 22.0% | 0hPa | 0V | 00:00:00 | 00:00:00 | 00:00:00 | |
| LZ4TU-5 | 2026-09-04 05:27:31 | 44.16788 | 22.57232 | 178° | 44km/h | 4264m | 7.3m/s | -5.5°C | 0% | 0hPa | 0V | 00:00:00 | 00:00:00 | 00:00:00 | |
| LZ4TU-5 | 2026-09-04 05:26:29 | 44.17472 | 22.56877 | 163° | 49km/h | 3894m | 5.2m/s | -4.2°C | 60.6% | 0hPa | 0V | 00:00:00 | 00:00:00 | 00:00:00 | |
| LZ4TU-5 | 2026-09-04 05:26:25 | 44.17497 | 22.56847 | 121° | 29km/h | 3871m | 3.9m/s | -4.1°C | 58.5% | 0hPa | 0V | 00:00:00 | 00:00:00 | 00:00:00 | |
| LZ4TU-5 | 2026-09-04 05:25:23 | 44.18102 | 22.56536 | 177° | 26km/h | 3515m | 5.9m/s | -1.9°C | 69.4% | 0hPa | 0V | 00:00:00 | 00:00:00 | 00:00:00 | |
| LZ4TU-5 | 2026-09-04 05:25:18 | 44.18155 | 22.56518 | 152° | 40km/h | 3485m | 5.2m/s | -1.7°C | 69.1% | 0hPa | 0V | 00:00:00 | 00:00:00 | 00:00:00 | |
| LZ4TU-5 | 2026-09-04 05:24:10 | 44.18652 | 22.56323 | 155° | 38km/h | 3088m | 7.4m/s | 1.8°C | 57.0% | 0hPa | 0V | 00:00:00 | 00:00:00 | 00:00:00 | |
| LZ4TU-5 | 2026-09-04 05:24:05 | 44.18690 | 22.56310 | 151° | 27km/h | 3057m | 5.8m/s | 2.1°C | 0% | 0hPa | 0V | 00:00:00 | 00:00:00 | 00:00:00 | |
| LZ4TU-5 | 2026-09-04 05:23:07 | 44.19184 | 22.56134 | 177° | 49km/h | 2704m | 6.3m/s | 4.5°C | 54.7% | 0hPa | 0V | 00:00:00 | 00:00:00 | 00:00:00 | |
| LZ4TU-5 | 2026-09-04 05:23:02 | 44.19238 | 22.56140 | 165° | 33km/h | 2673m | 6.1m/s | 4.8°C | 53.9% | 0hPa | 0V | 00:00:00 | 00:00:00 | 00:00:00 | |
| LZ4TU-5 | 2026-09-04 05:22:06 | 44.19818 | 22.55944 | 178° | 64km/h | 2355m | 5.4m/s | 7.7°C | 47.3% | 0hPa | 0V | 00:00:00 | 00:00:00 | 00:00:00 | |
| LZ4TU-5 | 2026-09-04 05:22:01 | 44.19890 | 22.55912 | 144° | 57km/h | 2325m | 5.2m/s | 7.9°C | 47.0% | 0hPa | 0V | 00:00:00 | 00:00:00 | 00:00:00 | |
| LZ4TU-5 | 2026-09-04 05:21:56 | 44.19956 | 22.55890 | 184° | 55km/h | 2297m | 3.5m/s | 8.1°C | 0% | 0hPa | 0V | 00:00:00 | 00:00:00 | 00:00:00 | |
| LZ4TU-5 | 2026-09-04 05:21:01 | 44.20695 | 22.55465 | 156° | 80km/h | 1973m | 6.3m/s | 9.9°C | 57.0% | 0hPa | 0V | 00:00:00 | 00:00:00 | 00:00:00 | |
| LZ4TU-5 | 2026-09-04 05:20:57 | 44.20759 | 22.55423 | 158° | 53km/h | 1948m | 6.5m/s | 10.2°C | 56.6% | 0hPa | 0V | 00:00:00 | 00:00:00 | 00:00:00 | |
| LZ4TU-5 | 2026-09-04 05:20:02 | 44.21460 | 22.54939 | 159° | 40km/h | 1641m | 5.8m/s | 12.7°C | 51.3% | 0hPa | 0V | 00:00:00 | 00:00:00 | 00:00:00 | |
| LZ4TU-5 | 2026-09-04 05:19:58 | 44.21499 | 22.54907 | 160° | 60km/h | 1619m | 6.4m/s | 12.9°C | 51.2% | 0hPa | 0V | 00:00:00 | 00:00:00 | 00:00:00 | |
| LZ4TU-5 | 2026-09-04 05:19:03 | 44.22155 | 22.54626 | 175° | 33km/h | 1318m | 4.8m/s | 15.7°C | 44.8% | 0hPa | 0V | 00:00:00 | 00:00:00 | 00:00:00 | |
| LZ4TU-5 | 2026-09-04 05:18:58 | 44.22209 | 22.54600 | 175° | 49km/h | 1294m | 6.1m/s | 16.0°C | 0% | 0hPa | 0V | 00:00:00 | 00:00:00 | 00:00:00 | |
| LZ4TU-5 | 2026-09-04 05:18:03 | 44.22808 | 22.54439 | 172° | 29km/h | 997m | 5.2m/s | 18.6°C | 37.8% | 0hPa | 0V | 00:00:00 | 00:00:00 | 00:00:00 | |
| LZ4TU-5 | 2026-09-04 05:17:59 | 44.22849 | 22.54432 | 163° | 47km/h | 978m | 6.1m/s | 18.6°C | 0% | 0hPa | 0V | 00:00:00 | 00:00:00 | 00:00:00 |